sensor_id;sensor_type;location;lat;lon;timestamp;temperature;humidity
26099;DHT22;13860;52.370;6.764;2024-01-15T00:00:23;2.90;88.90
26099;DHT22;13860;52.370;6.764;2024-01-15T00:03:31;2.90;88.90
26099;DHT22;13860;52.370;6.764;2024-01-15T00:06:37;2.90;88.90
26099;DHT22;13860;52.370;6.764;2024-01-15T00:09:47;2.80;88.90
26099;DHT22;13860;52.370;6.764;2024-01-15T00:12:53;2.80;88.90
26099;DHT22;13860;52.370;6.764;2024-01-15T00:16:00;2.80;88.90
26099;DHT22;13860;52.370;6.764;2024-01-15T00:19:06;2.80;88.90
26099;DHT22;13860;52.370;6.764;2024-01-15T00:22:14;2.70;89.00
26099;DHT22;13860;52.370;6.764;2024-01-15T00:25:22;2.70;88.90
26099;DHT22;13860;52.370;6.764;2024-01-15T00:28:29;2.70;89.00
26099;DHT22;13860;52.370;6.764;2024-01-15T00:31:35;2.70;88.90
26099;DHT22;13860;52.370;6.764;2024-01-15T00:34:43;2.70;88.90
26099;DHT22;13860;52.370;6.764;2024-01-15T00:37:48;2.70;89.00
26099;DHT22;13860;52.370;6.764;2024-01-15T00:40:59;2.70;88.90
26099;DHT22;13860;52.370;6.764;2024-01-15T00:44:04;2.70;88.90
26099;DHT22;13860;52.370;6.764;2024-01-15T00:47:12;2.60;88.90
26099;DHT22;13860;52.370;6.764;2024-01-15T00:50:18;2.60;88.90
26099;DHT22;13860;52.370;6.764;2024-01-15T00:53:25;2.60;89.00
26099;DHT22;13860;52.370;6.764;2024-01-15T00:56:34;2.60;88.90
26099;DHT22;13860;52.370;6.764;2024-01-15T00:59:41;2.50;88.80
26099;DHT22;13860;52.370;6.764;2024-01-15T01:02:47;2.50;88.80
26099;DHT22;13860;52.370;6.764;2024-01-15T01:05:54;2.50;88.90
26099;DHT22;13860;52.370;6.764;2024-01-15T01:09:00;2.50;88.90
26099;DHT22;13860;52.370;6.764;2024-01-15T01:12:10;2.50;88.90
26099;DHT22;13860;52.370;6.764;2024-01-15T01:15:16;2.50;88.90
26099;DHT22;13860;52.370;6.764;2024-01-15T01:18:24;2.50;88.90
26099;DHT22;13860;52.370;6.764;2024-01-15T01:21:30;2.50;88.90
26099;DHT22;13860;52.370;6.764;2024-01-15T01:24:38;2.40;88.80
26099;DHT22;13860;52.370;6.764;2024-01-15T01:27:46;2.40;88.90
26099;DHT22;13860;52.370;6.764;2024-01-15T01:30:54;2.40;88.80
26099;DHT22;13860;52.370;6.764;2024-01-15T01:33:59;2.40;88.90
26099;DHT22;13860;52.370;6.764;2024-01-15T01:37:07;2.40;88.90
26099;DHT22;13860;52.370;6.764;2024-01-15T01:40:15;2.40;88.90
26099;DHT22;13860;52.370;6.764;2024-01-15T01:43:25;2.40;88.90
26099;DHT22;13860;52.370;6.764;2024-01-15T01:46:31;2.40;89.50
26099;DHT22;13860;52.370;6.764;2024-01-15T01:49:39;2.40;88.90
26099;DHT22;13860;52.370;6.764;2024-01-15T01:52:45;2.40;88.80
26099;DHT22;13860;52.370;6.764;2024-01-15T01:55:53;2.30;88.80
26099;DHT22;13860;52.370;6.764;2024-01-15T01:59:02;2.30;88.80
26099;DHT22;13860;52.370;6.764;2024-01-15T02:02:11;2.30;88.80
26099;DHT22;13860;52.370;6.764;2024-01-15T02:05:18;2.30;88.80
26099;DHT22;13860;52.370;6.764;2024-01-15T02:08:27;2.30;89.50
26099;DHT22;13860;52.370;6.764;2024-01-15T02:11:32;2.30;88.90
26099;DHT22;13860;52.370;6.764;2024-01-15T02:14:42;2.30;88.90
26099;DHT22;13860;52.370;6.764;2024-01-15T02:17:58;2.30;88.90
26099;DHT22;13860;52.370;6.764;2024-01-15T02:21:07;2.20;88.90
26099;DHT22;13860;52.370;6.764;2024-01-15T02:24:16;2.30;89.00
26099;DHT22;13860;52.370;6.764;2024-01-15T02:27:23;2.30;89.00
26099;DHT22;13860;52.370;6.764;2024-01-15T02:30:30;2.30;89.00
26099;DHT22;13860;52.370;6.764;2024-01-15T02:33:38;2.30;89.00
26099;DHT22;13860;52.370;6.764;2024-01-15T02:36:45;2.30;89.10
26099;DHT22;13860;52.370;6.764;2024-01-15T02:39:55;2.30;89.00
26099;DHT22;13860;52.370;6.764;2024-01-15T02:43:00;2.30;89.00
26099;DHT22;13860;52.370;6.764;2024-01-15T02:46:08;2.30;89.60
26099;DHT22;13860;52.370;6.764;2024-01-15T02:49:14;2.30;89.10
26099;DHT22;13860;52.370;6.764;2024-01-15T02:52:21;2.40;89.10
26099;DHT22;13860;52.370;6.764;2024-01-15T02:55:29;2.40;89.10
26099;DHT22;13860;52.370;6.764;2024-01-15T02:58:37;2.40;89.10
26099;DHT22;13860;52.370;6.764;2024-01-15T03:01:42;2.40;89.10
26099;DHT22;13860;52.370;6.764;2024-01-15T03:04:50;2.40;89.00
26099;DHT22;13860;52.370;6.764;2024-01-15T03:07:55;2.50;89.10
26099;DHT22;13860;52.370;6.764;2024-01-15T03:11:06;2.50;89.00
26099;DHT22;13860;52.370;6.764;2024-01-15T03:14:11;2.50;89.00
26099;DHT22;13860;52.370;6.764;2024-01-15T03:17:19;2.50;89.00
26099;DHT22;13860;52.370;6.764;2024-01-15T03:20:24;2.50;88.90
26099;DHT22;13860;52.370;6.764;2024-01-15T03:23:32;2.50;89.00
26099;DHT22;13860;52.370;6.764;2024-01-15T03:26:40;2.50;89.00
26099;DHT22;13860;52.370;6.764;2024-01-15T03:29:48;2.50;89.00
26099;DHT22;13860;52.370;6.764;2024-01-15T03:32:53;2.50;88.90
26099;DHT22;13860;52.370;6.764;2024-01-15T03:36:01;2.50;88.90
26099;DHT22;13860;52.370;6.764;2024-01-15T03:39:06;2.50;88.90
26099;DHT22;13860;52.370;6.764;2024-01-15T03:42:17;2.60;89.00
26099;DHT22;13860;52.370;6.764;2024-01-15T03:45:22;2.60;88.90
26099;DHT22;13860;52.370;6.764;2024-01-15T03:48:30;2.60;88.90
26099;DHT22;13860;52.370;6.764;2024-01-15T03:51:36;2.50;88.80
26099;DHT22;13860;52.370;6.764;2024-01-15T03:54:44;2.50;88.70
26099;DHT22;13860;52.370;6.764;2024-01-15T03:57:52;2.60;89.40
26099;DHT22;13860;52.370;6.764;2024-01-15T04:01:00;2.60;88.90
26099;DHT22;13860;52.370;6.764;2024-01-15T04:04:06;2.60;88.90
26099;DHT22;13860;52.370;6.764;2024-01-15T04:07:13;2.60;88.80
26099;DHT22;13860;52.370;6.764;2024-01-15T04:10:19;2.60;88.80
26099;DHT22;13860;52.370;6.764;2024-01-15T04:13:32;2.60;88.80
26099;DHT22;13860;52.370;6.764;2024-01-15T04:16:39;2.60;88.80
26099;DHT22;13860;52.370;6.764;2024-01-15T04:19:47;2.60;88.70
26099;DHT22;13860;52.370;6.764;2024-01-15T04:22:53;2.60;88.70
26099;DHT22;13860;52.370;6.764;2024-01-15T04:26:00;2.50;88.70
26099;DHT22;13860;52.370;6.764;2024-01-15T04:29:09;2.60;88.80
26099;DHT22;13860;52.370;6.764;2024-01-15T04:32:16;2.60;88.70
26099;DHT22;13860;52.370;6.764;2024-01-15T04:35:22;2.50;88.80
26099;DHT22;13860;52.370;6.764;2024-01-15T04:38:30;2.50;88.70
26099;DHT22;13860;52.370;6.764;2024-01-15T04:41:35;2.60;88.80
26099;DHT22;13860;52.370;6.764;2024-01-15T04:44:45;2.60;88.80
26099;DHT22;13860;52.370;6.764;2024-01-15T04:47:51;2.60;88.80
26099;DHT22;13860;52.370;6.764;2024-01-15T04:50:58;2.60;88.80
26099;DHT22;13860;52.370;6.764;2024-01-15T04:54:04;2.60;88.80
26099;DHT22;13860;52.370;6.764;2024-01-15T04:57:12;2.60;88.80
26099;DHT22;13860;52.370;6.764;2024-01-15T05:00:20;2.60;88.80
26099;DHT22;13860;52.370;6.764;2024-01-15T05:03:28;2.60;88.80
26099;DHT22;13860;52.370;6.764;2024-01-15T05:06:33;2.60;88.80
26099;DHT22;13860;52.370;6.764;2024-01-15T05:09:43;2.60;88.80
26099;DHT22;13860;52.370;6.764;2024-01-15T05:12:49;2.60;88.80
26099;DHT22;13860;52.370;6.764;2024-01-15T05:15:59;2.60;88.80
26099;DHT22;13860;52.370;6.764;2024-01-15T05:19:06;2.60;88.80
26099;DHT22;13860;52.370;6.764;2024-01-15T05:22:17;2.60;88.80
26099;DHT22;13860;52.370;6.764;2024-01-15T05:25:23;2.60;88.80
26099;DHT22;13860;52.370;6.764;2024-01-15T05:28:31;2.60;88.80
26099;DHT22;13860;52.370;6.764;2024-01-15T05:31:45;2.60;88.80
26099;DHT22;13860;52.370;6.764;2024-01-15T05:34:52;2.60;88.80
26099;DHT22;13860;52.370;6.764;2024-01-15T05:37:58;2.60;88.80
26099;DHT22;13860;52.370;6.764;2024-01-15T05:41:06;2.60;88.80
26099;DHT22;13860;52.370;6.764;2024-01-15T05:44:11;2.60;88.80
26099;DHT22;13860;52.370;6.764;2024-01-15T05:47:21;2.60;88.80
26099;DHT22;13860;52.370;6.764;2024-01-15T05:50:27;2.60;88.90
26099;DHT22;13860;52.370;6.764;2024-01-15T05:53:34;2.60;88.90
26099;DHT22;13860;52.370;6.764;2024-01-15T05:56:42;2.70;88.90
26099;DHT22;13860;52.370;6.764;2024-01-15T05:59:50;2.60;88.80
26099;DHT22;13860;52.370;6.764;2024-01-15T06:02:58;2.60;88.80
26099;DHT22;13860;52.370;6.764;2024-01-15T06:06:08;2.60;88.80
26099;DHT22;13860;52.370;6.764;2024-01-15T06:09:14;2.60;89.40
26099;DHT22;13860;52.370;6.764;2024-01-15T06:12:22;2.60;88.80
26099;DHT22;13860;52.370;6.764;2024-01-15T06:15:28;2.60;88.80
26099;DHT22;13860;52.370;6.764;2024-01-15T06:18:41;2.70;88.80
26099;DHT22;13860;52.370;6.764;2024-01-15T06:21:47;2.60;88.70
26099;DHT22;13860;52.370;6.764;2024-01-15T06:24:54;2.60;88.80
26099;DHT22;13860;52.370;6.764;2024-01-15T06:28:00;2.70;88.90
26099;DHT22;13860;52.370;6.764;2024-01-15T06:31:15;2.60;88.90
26099;DHT22;13860;52.370;6.764;2024-01-15T06:34:24;2.60;88.90
26099;DHT22;13860;52.370;6.764;2024-01-15T06:37:33;2.60;88.90
26099;DHT22;13860;52.370;6.764;2024-01-15T06:40:39;2.60;88.90
26099;DHT22;13860;52.370;6.764;2024-01-15T06:43:51;2.70;88.90
26099;DHT22;13860;52.370;6.764;2024-01-15T06:47:00;2.60;88.90
26099;DHT22;13860;52.370;6.764;2024-01-15T06:50:13;2.70;88.80
26099;DHT22;13860;52.370;6.764;2024-01-15T06:53:19;2.60;88.70
26099;DHT22;13860;52.370;6.764;2024-01-15T06:56:27;2.60;88.70
26099;DHT22;13860;52.370;6.764;2024-01-15T06:59:33;2.60;88.70
26099;DHT22;13860;52.370;6.764;2024-01-15T07:02:42;2.50;88.80
26099;DHT22;13860;52.370;6.764;2024-01-15T07:05:51;2.60;88.80
26099;DHT22;13860;52.370;6.764;2024-01-15T07:08:59;2.50;88.70
26099;DHT22;13860;52.370;6.764;2024-01-15T07:12:05;2.60;88.80
26099;DHT22;13860;52.370;6.764;2024-01-15T07:15:12;2.60;88.80
26099;DHT22;13860;52.370;6.764;2024-01-15T07:18:21;2.50;88.80
26099;DHT22;13860;52.370;6.764;2024-01-15T07:21:31;2.50;88.70
26099;DHT22;13860;52.370;6.764;2024-01-15T07:24:37;2.50;88.70
26099;DHT22;13860;52.370;6.764;2024-01-15T07:27:45;2.50;88.70
26099;DHT22;13860;52.370;6.764;2024-01-15T07:30:53;2.50;88.70
26099;DHT22;13860;52.370;6.764;2024-01-15T07:34:01;2.50;88.80
26099;DHT22;13860;52.370;6.764;2024-01-15T07:37:09;2.50;88.80
26099;DHT22;13860;52.370;6.764;2024-01-15T07:40:17;2.50;88.80
26099;DHT22;13860;52.370;6.764;2024-01-15T07:43:22;2.40;88.80
26099;DHT22;13860;52.370;6.764;2024-01-15T07:46:31;2.40;88.80
26099;DHT22;13860;52.370;6.764;2024-01-15T07:49:37;2.40;88.80
26099;DHT22;13860;52.370;6.764;2024-01-15T07:52:47;2.40;89.40
26099;DHT22;13860;52.370;6.764;2024-01-15T07:55:56;2.40;88.80
26099;DHT22;13860;52.370;6.764;2024-01-15T07:59:03;2.40;89.40
26099;DHT22;13860;52.370;6.764;2024-01-15T08:02:09;2.40;88.80
26099;DHT22;13860;52.370;6.764;2024-01-15T08:05:17;2.40;89.40
26099;DHT22;13860;52.370;6.764;2024-01-15T08:08:26;2.40;88.80
26099;DHT22;13860;52.370;6.764;2024-01-15T08:11:35;2.40;88.80
26099;DHT22;13860;52.370;6.764;2024-01-15T08:14:41;2.40;88.80
26099;DHT22;13860;52.370;6.764;2024-01-15T08:17:50;2.30;88.80
26099;DHT22;13860;52.370;6.764;2024-01-15T08:20:58;2.30;88.80
26099;DHT22;13860;52.370;6.764;2024-01-15T08:24:11;2.30;88.80
26099;DHT22;13860;52.370;6.764;2024-01-15T08:27:16;2.30;88.80
26099;DHT22;13860;52.370;6.764;2024-01-15T08:30:24;2.30;88.80
26099;DHT22;13860;52.370;6.764;2024-01-15T08:33:31;2.30;89.50
26099;DHT22;13860;52.370;6.764;2024-01-15T08:36:38;2.30;88.90
26099;DHT22;13860;52.370;6.764;2024-01-15T08:39:47;2.30;88.90
26099;DHT22;13860;52.370;6.764;2024-01-15T08:42:55;2.20;88.90
26099;DHT22;13860;52.370;6.764;2024-01-15T08:46:03;2.30;89.00
26099;DHT22;13860;52.370;6.764;2024-01-15T08:49:12;2.30;89.00
26099;DHT22;13860;52.370;6.764;2024-01-15T08:52:17;2.20;88.90
26099;DHT22;13860;52.370;6.764;2024-01-15T08:55:27;2.30;89.00
26099;DHT22;13860;52.370;6.764;2024-01-15T08:58:33;2.40;89.10
26099;DHT22;13860;52.370;6.764;2024-01-15T09:01:41;2.30;89.10
26099;DHT22;13860;52.370;6.764;2024-01-15T09:04:48;2.30;89.10
26099;DHT22;13860;52.370;6.764;2024-01-15T09:07:56;2.30;89.10
26099;DHT22;13860;52.370;6.764;2024-01-15T09:11:05;2.30;89.10
26099;DHT22;13860;52.370;6.764;2024-01-15T09:14:12;2.30;89.20
26099;DHT22;13860;52.370;6.764;2024-01-15T09:17:20;2.30;89.30
26099;DHT22;13860;52.370;6.764;2024-01-15T09:20:28;2.30;89.30
26099;DHT22;13860;52.370;6.764;2024-01-15T09:23:33;2.30;89.30
26099;DHT22;13860;52.370;6.764;2024-01-15T09:26:45;2.40;89.40
26099;DHT22;13860;52.370;6.764;2024-01-15T09:29:50;2.40;89.40
26099;DHT22;13860;52.370;6.764;2024-01-15T09:32:58;2.40;89.40
26099;DHT22;13860;52.370;6.764;2024-01-15T09:36:05;2.40;89.40
26099;DHT22;13860;52.370;6.764;2024-01-15T09:39:13;2.50;89.50
26099;DHT22;13860;52.370;6.764;2024-01-15T09:42:22;2.50;89.50
26099;DHT22;13860;52.370;6.764;2024-01-15T09:45:33;2.50;89.40
26099;DHT22;13860;52.370;6.764;2024-01-15T09:48:40;2.50;89.40
26099;DHT22;13860;52.370;6.764;2024-01-15T09:51:48;2.50;89.40
26099;DHT22;13860;52.370;6.764;2024-01-15T09:55:08;2.60;89.40
26099;DHT22;13860;52.370;6.764;2024-01-15T09:58:19;2.60;89.40
26099;DHT22;13860;52.370;6.764;2024-01-15T10:01:25;2.60;89.40
26099;DHT22;13860;52.370;6.764;2024-01-15T10:04:33;2.70;89.50
26099;DHT22;13860;52.370;6.764;2024-01-15T10:07:39;2.70;89.50
26099;DHT22;13860;52.370;6.764;2024-01-15T10:10:48;2.70;89.60
26099;DHT22;13860;52.370;6.764;2024-01-15T10:13:56;2.70;89.50
26099;DHT22;13860;52.370;6.764;2024-01-15T10:17:12;2.70;89.40
26099;DHT22;13860;52.370;6.764;2024-01-15T10:20:21;2.70;89.40
26099;DHT22;13860;52.370;6.764;2024-01-15T10:23:29;2.70;89.50
26099;DHT22;13860;52.370;6.764;2024-01-15T10:26:37;2.80;89.60
26099;DHT22;13860;52.370;6.764;2024-01-15T10:29:47;2.80;89.70
26099;DHT22;13860;52.370;6.764;2024-01-15T10:32:57;2.90;89.70
26099;DHT22;13860;52.370;6.764;2024-01-15T10:36:10;2.90;89.80
26099;DHT22;13860;52.370;6.764;2024-01-15T10:39:16;3.00;89.90
26099;DHT22;13860;52.370;6.764;2024-01-15T10:42:23;3.10;89.90
26099;DHT22;13860;52.370;6.764;2024-01-15T10:45:31;3.10;89.90
26099;DHT22;13860;52.370;6.764;2024-01-15T10:48:39;3.20;90.00
26099;DHT22;13860;52.370;6.764;2024-01-15T10:51:46;3.30;90.00
26099;DHT22;13860;52.370;6.764;2024-01-15T10:54:56;3.30;90.00
26099;DHT22;13860;52.370;6.764;2024-01-15T10:58:07;3.40;90.00
26099;DHT22;13860;52.370;6.764;2024-01-15T11:01:17;3.40;90.00
26099;DHT22;13860;52.370;6.764;2024-01-15T11:04:23;3.40;89.90
26099;DHT22;13860;52.370;6.764;2024-01-15T11:07:33;3.50;89.90
26099;DHT22;13860;52.370;6.764;2024-01-15T11:10:40;3.50;89.80
26099;DHT22;13860;52.370;6.764;2024-01-15T11:13:51;3.50;89.70
26099;DHT22;13860;52.370;6.764;2024-01-15T11:16:59;3.50;89.70
26099;DHT22;13860;52.370;6.764;2024-01-15T11:20:07;3.50;89.70
26099;DHT22;13860;52.370;6.764;2024-01-15T11:23:43;3.50;89.60
26099;DHT22;13860;52.370;6.764;2024-01-15T11:26:55;3.50;89.60
26099;DHT22;13860;52.370;6.764;2024-01-15T11:30:06;3.50;89.50
26099;DHT22;13860;52.370;6.764;2024-01-15T11:33:35;3.60;89.60
26099;DHT22;13860;52.370;6.764;2024-01-15T11:37:05;3.60;89.40
26099;DHT22;13860;52.370;6.764;2024-01-15T11:40:12;3.60;89.40
26099;DHT22;13860;52.370;6.764;2024-01-15T11:43:20;3.60;89.40
26099;DHT22;13860;52.370;6.764;2024-01-15T11:46:33;3.60;89.30
26099;DHT22;13860;52.370;6.764;2024-01-15T11:50:06;3.50;89.30
26099;DHT22;13860;52.370;6.764;2024-01-15T11:53:17;3.60;89.50
26099;DHT22;13860;52.370;6.764;2024-01-15T11:56:25;3.60;89.50
26099;DHT22;13860;52.370;6.764;2024-01-15T11:59:32;3.60;89.50
26099;DHT22;13860;52.370;6.764;2024-01-15T12:02:38;3.60;89.50
26099;DHT22;13860;52.370;6.764;2024-01-15T12:05:49;3.60;89.50
26099;DHT22;13860;52.370;6.764;2024-01-15T12:09:06;3.60;89.50
26099;DHT22;13860;52.370;6.764;2024-01-15T12:12:21;3.70;89.50
26099;DHT22;13860;52.370;6.764;2024-01-15T12:15:29;3.60;89.50
26099;DHT22;13860;52.370;6.764;2024-01-15T12:18:37;3.60;89.40
26099;DHT22;13860;52.370;6.764;2024-01-15T12:21:46;3.60;89.40
26099;DHT22;13860;52.370;6.764;2024-01-15T12:24:53;3.60;89.40
26099;DHT22;13860;52.370;6.764;2024-01-15T12:28:01;3.60;89.40
26099;DHT22;13860;52.370;6.764;2024-01-15T12:31:08;3.60;89.30
26099;DHT22;13860;52.370;6.764;2024-01-15T12:34:14;3.60;89.30
26099;DHT22;13860;52.370;6.764;2024-01-15T12:37:24;3.60;89.20
26099;DHT22;13860;52.370;6.764;2024-01-15T12:40:31;3.60;89.30
26099;DHT22;13860;52.370;6.764;2024-01-15T12:43:41;3.60;89.30
26099;DHT22;13860;52.370;6.764;2024-01-15T12:46:48;3.50;89.20
26099;DHT22;13860;52.370;6.764;2024-01-15T12:49:55;3.50;89.30
26099;DHT22;13860;52.370;6.764;2024-01-15T12:53:19;3.50;89.30
26099;DHT22;13860;52.370;6.764;2024-01-15T12:56:27;3.60;89.40
26099;DHT22;13860;52.370;6.764;2024-01-15T12:59:32;3.60;89.40
26099;DHT22;13860;52.370;6.764;2024-01-15T13:02:40;3.60;89.40
26099;DHT22;13860;52.370;6.764;2024-01-15T13:05:46;3.60;89.50
26099;DHT22;13860;52.370;6.764;2024-01-15T13:08:58;3.60;89.50
26099;DHT22;13860;52.370;6.764;2024-01-15T13:12:04;3.60;89.60
26099;DHT22;13860;52.370;6.764;2024-01-15T13:15:12;3.60;89.60
26099;DHT22;13860;52.370;6.764;2024-01-15T13:18:18;3.60;89.60
26099;DHT22;13860;52.370;6.764;2024-01-15T13:21:26;3.60;89.60
26099;DHT22;13860;52.370;6.764;2024-01-15T13:24:34;3.60;89.50
26099;DHT22;13860;52.370;6.764;2024-01-15T13:27:42;3.60;89.50
26099;DHT22;13860;52.370;6.764;2024-01-15T13:30:47;3.60;89.30
26099;DHT22;13860;52.370;6.764;2024-01-15T13:33:55;3.60;89.30
26099;DHT22;13860;52.370;6.764;2024-01-15T13:37:01;3.60;89.30
26099;DHT22;13860;52.370;6.764;2024-01-15T13:40:11;3.60;89.30
26099;DHT22;13860;52.370;6.764;2024-01-15T13:43:19;3.60;89.30
26099;DHT22;13860;52.370;6.764;2024-01-15T13:46:28;3.60;89.20
26099;DHT22;13860;52.370;6.764;2024-01-15T13:49:34;3.60;89.20
26099;DHT22;13860;52.370;6.764;2024-01-15T13:52:44;3.60;89.10
26099;DHT22;13860;52.370;6.764;2024-01-15T13:55:52;3.60;89.00
26099;DHT22;13860;52.370;6.764;2024-01-15T13:59:00;3.60;89.00
26099;DHT22;13860;52.370;6.764;2024-01-15T14:02:06;3.60;88.90
26099;DHT22;13860;52.370;6.764;2024-01-15T14:05:14;3.60;88.90
26099;DHT22;13860;52.370;6.764;2024-01-15T14:08:20;3.60;89.00
26099;DHT22;13860;52.370;6.764;2024-01-15T14:11:30;3.60;89.00
26099;DHT22;13860;52.370;6.764;2024-01-15T14:14:36;3.60;89.00
26099;DHT22;13860;52.370;6.764;2024-01-15T14:17:45;3.60;88.90
26099;DHT22;13860;52.370;6.764;2024-01-15T14:20:50;3.60;88.90
26099;DHT22;13860;52.370;6.764;2024-01-15T14:23:58;3.60;88.90
26099;DHT22;13860;52.370;6.764;2024-01-15T14:27:06;3.60;88.90
26099;DHT22;13860;52.370;6.764;2024-01-15T14:30:17;3.50;88.90
26099;DHT22;13860;52.370;6.764;2024-01-15T14:33:23;3.50;88.90
26099;DHT22;13860;52.370;6.764;2024-01-15T14:36:31;3.60;89.00
26099;DHT22;13860;52.370;6.764;2024-01-15T14:39:36;3.60;89.00
26099;DHT22;13860;52.370;6.764;2024-01-15T14:42:46;3.60;88.90
26099;DHT22;13860;52.370;6.764;2024-01-15T14:45:52;3.60;88.90
26099;DHT22;13860;52.370;6.764;2024-01-15T14:49:00;3.50;88.80
26099;DHT22;13860;52.370;6.764;2024-01-15T14:52:06;3.50;88.90
26099;DHT22;13860;52.370;6.764;2024-01-15T14:55:13;3.50;88.80
26099;DHT22;13860;52.370;6.764;2024-01-15T14:58:21;3.50;88.80
26099;DHT22;13860;52.370;6.764;2024-01-15T15:01:29;3.50;88.80
26099;DHT22;13860;52.370;6.764;2024-01-15T15:04:35;3.50;88.80
26099;DHT22;13860;52.370;6.764;2024-01-15T15:07:43;3.40;88.70
26099;DHT22;13860;52.370;6.764;2024-01-15T15:10:49;3.40;88.70
26099;DHT22;13860;52.370;6.764;2024-01-15T15:14:00;3.40;88.70
26099;DHT22;13860;52.370;6.764;2024-01-15T15:17:06;3.40;88.70
26099;DHT22;13860;52.370;6.764;2024-01-15T15:20:14;3.40;88.70
26099;DHT22;13860;52.370;6.764;2024-01-15T15:23:27;3.30;88.70
26099;DHT22;13860;52.370;6.764;2024-01-15T15:26:34;3.30;88.60
26099;DHT22;13860;52.370;6.764;2024-01-15T15:29:43;3.30;88.70
26099;DHT22;13860;52.370;6.764;2024-01-15T15:32:52;3.30;88.70
26099;DHT22;13860;52.370;6.764;2024-01-15T15:36:00;3.30;88.70
26099;DHT22;13860;52.370;6.764;2024-01-15T15:39:09;3.30;88.70
26099;DHT22;13860;52.370;6.764;2024-01-15T15:42:18;3.20;88.60
26099;DHT22;13860;52.370;6.764;2024-01-15T15:45:28;3.20;88.60
26099;DHT22;13860;52.370;6.764;2024-01-15T15:48:34;3.20;88.60
26099;DHT22;13860;52.370;6.764;2024-01-15T15:51:42;3.20;89.20
26099;DHT22;13860;52.370;6.764;2024-01-15T15:54:48;3.10;88.50
26099;DHT22;13860;52.370;6.764;2024-01-15T15:57:56;3.10;88.50
26099;DHT22;13860;52.370;6.764;2024-01-15T16:01:06;3.10;88.50
26099;DHT22;13860;52.370;6.764;2024-01-15T16:04:14;3.10;88.50
26099;DHT22;13860;52.370;6.764;2024-01-15T16:07:20;3.00;88.40
26099;DHT22;13860;52.370;6.764;2024-01-15T16:10:33;3.00;88.50
26099;DHT22;13860;52.370;6.764;2024-01-15T16:13:38;3.00;88.50
26099;DHT22;13860;52.370;6.764;2024-01-15T16:16:49;3.00;88.50
26099;DHT22;13860;52.370;6.764;2024-01-15T16:20:19;3.00;88.50
26099;DHT22;13860;52.370;6.764;2024-01-15T16:23:46;3.00;88.60
26099;DHT22;13860;52.370;6.764;2024-01-15T16:27:12;2.90;88.50
26099;DHT22;13860;52.370;6.764;2024-01-15T16:30:20;2.90;88.60
26099;DHT22;13860;52.370;6.764;2024-01-15T16:33:40;2.90;88.50
26099;DHT22;13860;52.370;6.764;2024-01-15T16:36:55;2.90;88.50
26099;DHT22;13860;52.370;6.764;2024-01-15T16:40:01;2.90;88.50
26099;DHT22;13860;52.370;6.764;2024-01-15T16:43:10;2.90;88.50
26099;DHT22;13860;52.370;6.764;2024-01-15T16:46:16;2.90;88.50
26099;DHT22;13860;52.370;6.764;2024-01-15T16:49:26;2.90;88.60
26099;DHT22;13860;52.370;6.764;2024-01-15T16:52:31;2.90;88.60
26099;DHT22;13860;52.370;6.764;2024-01-15T16:55:40;2.90;88.60
26099;DHT22;13860;52.370;6.764;2024-01-15T16:58:48;2.90;88.50
26099;DHT22;13860;52.370;6.764;2024-01-15T17:01:58;2.90;88.50
26099;DHT22;13860;52.370;6.764;2024-01-15T17:05:06;2.90;88.50
26099;DHT22;13860;52.370;6.764;2024-01-15T17:08:14;2.90;88.40
26099;DHT22;13860;52.370;6.764;2024-01-15T17:11:20;2.90;88.40
26099;DHT22;13860;52.370;6.764;2024-01-15T17:14:28;2.90;88.40
26099;DHT22;13860;52.370;6.764;2024-01-15T17:17:33;2.80;88.30
26099;DHT22;13860;52.370;6.764;2024-01-15T17:20:44;2.80;88.30
26099;DHT22;13860;52.370;6.764;2024-01-15T17:23:49;2.80;88.30
26099;DHT22;13860;52.370;6.764;2024-01-15T17:26:57;2.80;88.40
26099;DHT22;13860;52.370;6.764;2024-01-15T17:30:03;2.70;88.40
26099;DHT22;13860;52.370;6.764;2024-01-15T17:33:11;2.70;88.40
26099;DHT22;13860;52.370;6.764;2024-01-15T17:36:20;2.70;88.50
26099;DHT22;13860;52.370;6.764;2024-01-15T17:39:27;2.70;88.40
26099;DHT22;13860;52.370;6.764;2024-01-15T17:42:33;2.70;89.00
26099;DHT22;13860;52.370;6.764;2024-01-15T17:45:41;2.70;88.40
26099;DHT22;13860;52.370;6.764;2024-01-15T17:48:48;2.70;88.50
26099;DHT22;13860;52.370;6.764;2024-01-15T17:51:58;2.70;88.60
26099;DHT22;13860;52.370;6.764;2024-01-15T17:55:07;2.70;88.60
26099;DHT22;13860;52.370;6.764;2024-01-15T17:58:15;2.70;88.60
26099;DHT22;13860;52.370;6.764;2024-01-15T18:01:20;2.70;88.60
26099;DHT22;13860;52.370;6.764;2024-01-15T18:04:28;2.70;88.50
26099;DHT22;13860;52.370;6.764;2024-01-15T18:07:36;2.70;88.50
26099;DHT22;13860;52.370;6.764;2024-01-15T18:10:43;2.60;88.50
26099;DHT22;13860;52.370;6.764;2024-01-15T18:13:51;2.60;88.40
26099;DHT22;13860;52.370;6.764;2024-01-15T18:16:58;2.60;89.00
26099;DHT22;13860;52.370;6.764;2024-01-15T18:20:05;2.60;88.40
26099;DHT22;13860;52.370;6.764;2024-01-15T18:23:16;2.60;88.50
26099;DHT22;13860;52.370;6.764;2024-01-15T18:26:22;2.60;88.50
26099;DHT22;13860;52.370;6.764;2024-01-15T18:29:30;2.60;88.50
26099;DHT22;13860;52.370;6.764;2024-01-15T18:32:35;2.50;88.40
26099;DHT22;13860;52.370;6.764;2024-01-15T18:35:43;2.50;88.40
26099;DHT22;13860;52.370;6.764;2024-01-15T18:38:52;2.50;88.50
26099;DHT22;13860;52.370;6.764;2024-01-15T18:42:00;2.50;88.50
26099;DHT22;13860;52.370;6.764;2024-01-15T18:45:07;2.50;88.60
26099;DHT22;13860;52.370;6.764;2024-01-15T18:48:16;2.50;88.60
26099;DHT22;13860;52.370;6.764;2024-01-15T18:51:22;2.50;88.60
26099;DHT22;13860;52.370;6.764;2024-01-15T18:54:33;2.50;88.60
26099;DHT22;13860;52.370;6.764;2024-01-15T18:57:38;2.50;88.60
26099;DHT22;13860;52.370;6.764;2024-01-15T19:00:46;2.50;88.70
26099;DHT22;13860;52.370;6.764;2024-01-15T19:03:51;2.50;88.70
26099;DHT22;13860;52.370;6.764;2024-01-15T19:07:00;2.50;88.70
26099;DHT22;13860;52.370;6.764;2024-01-15T19:10:09;2.50;88.70
26099;DHT22;13860;52.370;6.764;2024-01-15T19:13:17;2.50;88.70
26099;DHT22;13860;52.370;6.764;2024-01-15T19:16:22;2.50;88.70
26099;DHT22;13860;52.370;6.764;2024-01-15T19:19:30;2.50;88.70
26099;DHT22;13860;52.370;6.764;2024-01-15T19:22:39;2.50;88.60
26099;DHT22;13860;52.370;6.764;2024-01-15T19:25:50;2.40;88.60
26099;DHT22;13860;52.370;6.764;2024-01-15T19:28:56;2.40;89.20
26099;DHT22;13860;52.370;6.764;2024-01-15T19:32:04;2.40;88.70
26099;DHT22;13860;52.370;6.764;2024-01-15T19:35:10;2.40;88.70
26099;DHT22;13860;52.370;6.764;2024-01-15T19:38:18;2.40;88.60
26099;DHT22;13860;52.370;6.764;2024-01-15T19:41:26;2.40;88.70
26099;DHT22;13860;52.370;6.764;2024-01-15T19:44:33;2.30;88.70
26099;DHT22;13860;52.370;6.764;2024-01-15T19:47:40;2.30;88.70
26099;DHT22;13860;52.370;6.764;2024-01-15T19:50:48;2.30;88.70
26099;DHT22;13860;52.370;6.764;2024-01-15T19:53:55;2.30;88.70
26099;DHT22;13860;52.370;6.764;2024-01-15T19:57:06;2.30;88.70
26099;DHT22;13860;52.370;6.764;2024-01-15T20:00:12;2.30;88.70
26099;DHT22;13860;52.370;6.764;2024-01-15T20:03:19;2.30;88.70
26099;DHT22;13860;52.370;6.764;2024-01-15T20:06:25;2.30;88.70